Time;durP1;ratioP1;P1;durP2;ratioP2;P2;SDS_P1;SDS_P2;PMS_P1;PMS_P2;Temp;Humidity;BMP_temperature;BMP_pressure;BME280_temperature;BME280_humidity;BME280_pressure;Samples;Min_cycle;Max_cycle;Signal;HPM_P1;HPM_P2
2022/10/16 00:02:16;;;;;;;13.20;8.88;;;;;;;;;;5071671;28;20020;-76
2022/10/16 00:04:41;;;;;;;12.73;8.98;;;;;;;;;;5071694;28;20028;-75
2022/10/16 00:07:07;;;;;;;12.23;8.60;;;;;;;;;;5072960;28;20021;-75
2022/10/16 00:09:32;;;;;;;13.38;8.88;;;;;;;;;;5072902;28;20032;-75
2022/10/16 00:11:57;;;;;;;11.60;8.73;;;;;;;;;;5072744;28;20016;-77
2022/10/16 00:14:23;;;;;;;11.88;8.40;;;;;;;;;;5072743;28;20028;-75
2022/10/16 00:16:48;;;;;;;14.27;9.55;;;;;;;;;;5072793;28;20409;-75
2022/10/16 00:19:13;;;;;;;11.93;8.77;;;;;;;;;;5073076;28;20033;-75
2022/10/16 00:21:39;;;;;;;12.27;8.77;;;;;;;;;;5072758;28;20020;-75
2022/10/16 00:24:08;;;;;;;12.10;9.43;;;;;;;;;;5072778;28;20470;-75
2022/10/16 00:26:35;;;;;;;12.18;8.68;;;;;;;;;;5072733;28;20020;-75
2022/10/16 00:29:00;;;;;;;11.13;8.60;;;;;;;;;;5073005;28;20037;-75
2022/10/16 00:31:26;;;;;;;13.32;8.75;;;;;;;;;;5072749;28;20035;-76
2022/10/16 00:33:52;;;;;;;14.70;9.20;;;;;;;;;;5074222;28;20056;-75
2022/10/16 00:36:20;;;;;;;12.57;8.38;;;;;;;;;;5075454;28;20085;-75
2022/10/16 00:38:46;;;;;;;14.55;8.85;;;;;;;;;;5076453;28;20056;-75
2022/10/16 00:41:15;;;;;;;13.73;8.77;;;;;;;;;;5075243;28;20066;-75
2022/10/16 00:43:46;;;;;;;11.73;8.32;;;;;;;;;;5076733;28;20025;-75
2022/10/16 00:46:22;;;;;;;12.30;8.45;;;;;;;;;;5075141;28;20029;-75
2022/10/16 00:48:51;;;;;;;11.93;8.35;;;;;;;;;;5076408;28;20493;-75
2022/10/16 00:51:20;;;;;;;11.45;8.25;;;;;;;;;;5076271;28;20102;-75
2022/10/16 00:53:46;;;;;;;15.93;8.80;;;;;;;;;;5076416;28;20064;-74
2022/10/16 00:56:11;;;;;;;13.57;8.45;;;;;;;;;;5076144;28;20056;-75
2022/10/16 00:58:37;;;;;;;11.68;8.30;;;;;;;;;;5076070;28;20085;-74
2022/10/16 01:01:02;;;;;;;10.50;8.30;;;;;;;;;;5074744;28;20028;-74
2022/10/16 01:03:33;;;;;;;11.95;8.02;;;;;;;;;;5076051;28;20443;-75
2022/10/16 01:06:07;;;;;;;11.43;8.32;;;;;;;;;;5076154;28;20028;-74
2022/10/16 01:09:15;;;;;;;12.25;7.75;;;;;;;;;;5076039;28;20413;-75
2022/10/16 01:11:48;;;;;;;8.55;7.15;;;;;;;;;;5075695;28;20020;-75
2022/10/16 01:14:26;;;;;;;10.88;8.38;;;;;;;;;;5075731;28;20028;-75
2022/10/16 01:17:13;;;;;;;9.05;7.53;;;;;;;;;;5074601;28;20030;-74
2022/10/16 01:20:21;;;;;;;9.57;7.47;;;;;;;;;;5075820;28;20070;-75
2022/10/16 01:23:16;;;;;;;12.43;7.40;;;;;;;;;;5068785;28;20401;-75
2022/10/16 01:26:16;;;;;;;10.20;7.45;;;;;;;;;;5074234;28;20459;-75
2022/10/16 01:28:46;;;;;;;10.10;7.55;;;;;;;;;;5074295;28;20024;-76
2022/10/16 01:31:14;;;;;;;10.70;8.10;;;;;;;;;;5075424;28;20104;-75
2022/10/16 01:33:47;;;;;;;9.45;7.47;;;;;;;;;;5075526;28;20043;-75
2022/10/16 01:36:23;;;;;;;11.55;8.05;;;;;;;;;;5075620;28;20059;-75
2022/10/16 01:38:52;;;;;;;9.98;7.97;;;;;;;;;;5075406;28;20032;-75
2022/10/16 01:41:33;;;;;;;9.90;8.00;;;;;;;;;;5073978;28;20028;-75
2022/10/16 01:44:17;;;;;;;11.57;8.75;;;;;;;;;;5073999;28;20028;-75
2022/10/16 01:46:45;;;;;;;11.38;8.38;;;;;;;;;;5075562;28;20059;-75
2022/10/16 01:49:12;;;;;;;10.63;8.50;;;;;;;;;;5073926;28;20115;-75
2022/10/16 01:51:38;;;;;;;11.38;8.75;;;;;;;;;;5074650;28;20108;-75
2022/10/16 01:54:06;;;;;;;10.30;8.77;;;;;;;;;;5073824;28;20473;-75
2022/10/16 01:56:33;;;;;;;11.13;8.80;;;;;;;;;;5074951;28;20132;-75
2022/10/16 01:59:13;;;;;;;11.55;9.45;;;;;;;;;;5074924;28;20085;-74
2022/10/16 02:01:42;;;;;;;15.15;9.57;;;;;;;;;;5075163;28;20028;-75
2022/10/16 02:04:18;;;;;;;12.35;9.95;;;;;;;;;;5074992;28;20031;-75
2022/10/16 02:06:43;;;;;;;11.80;9.65;;;;;;;;;;5073982;28;20435;-75
2022/10/16 02:09:09;;;;;;;11.80;9.23;;;;;;;;;;5074765;28;20036;-76
2022/10/16 02:11:34;;;;;;;13.73;9.65;;;;;;;;;;5073409;28;20024;-75
2022/10/16 02:14:06;;;;;;;14.27;10.32;;;;;;;;;;5074785;28;20040;-75
2022/10/16 02:16:39;;;;;;;12.85;9.90;;;;;;;;;;5073326;28;20021;-75
2022/10/16 02:19:05;;;;;;;12.82;10.00;;;;;;;;;;5075108;28;20028;-75
2022/10/16 02:21:41;;;;;;;12.07;9.48;;;;;;;;;;5073275;28;20392;-76
2022/10/16 02:24:14;;;;;;;13.93;10.02;;;;;;;;;;5074971;28;20071;-74
2022/10/16 02:26:46;;;;;;;;;;;;;;;;;;5073653;28;20028;-75
2022/10/16 02:29:15;;;;;;;15.40;9.93;;;;;;;;;;5075028;28;19908;-75
2022/10/16 02:31:47;;;;;;;13.27;9.52;;;;;;;;;;5074193;28;20107;-75
2022/10/16 02:34:14;;;;;;;13.90;10.02;;;;;;;;;;5073172;28;20119;-75
2022/10/16 02:36:41;;;;;;;12.43;9.80;;;;;;;;;;5074512;28;20393;-75
2022/10/16 02:39:08;;;;;;;12.07;9.05;;;;;;;;;;5074217;28;20107;-75
2022/10/16 02:41:33;;;;;;;11.82;9.50;;;;;;;;;;5074078;28;20388;-75
2022/10/16 02:43:59;;;;;;;12.18;8.95;;;;;;;;;;5072863;28;20120;-75
2022/10/16 02:46:24;;;;;;;13.75;8.77;;;;;;;;;;5074039;28;20020;-75
2022/10/16 02:48:49;;;;;;;10.93;8.73;;;;;;;;;;5072620;28;20469;-75
2022/10/16 02:51:15;;;;;;;12.50;8.63;;;;;;;;;;5073879;28;20073;-75
2022/10/16 02:53:40;;;;;;;12.45;8.23;;;;;;;;;;5072987;28;20028;-75
2022/10/16 02:56:05;;;;;;;10.73;8.48;;;;;;;;;;5073177;28;20056;-74
2022/10/16 02:58:31;;;;;;;11.77;8.13;;;;;;;;;;5074308;28;20035;-74
2022/10/16 03:00:56;;;;;;;10.65;8.02;;;;;;;;;;5072419;28;20023;-74
2022/10/16 03:03:21;;;;;;;10.00;7.80;;;;;;;;;;5073783;28;20123;-75
2022/10/16 03:05:47;;;;;;;11.15;7.93;;;;;;;;;;5073752;28;20107;-74
2022/10/16 03:08:13;;;;;;;12.38;7.57;;;;;;;;;;5073683;28;20106;-75
2022/10/16 03:10:38;;;;;;;8.90;7.25;;;;;;;;;;5072616;28;20547;-75
2022/10/16 03:13:03;;;;;;;12.98;7.82;;;;;;;;;;5073488;28;20029;-74
2022/10/16 03:15:29;;;;;;;9.73;7.80;;;;;;;;;;5073500;28;20081;-74
2022/10/16 03:17:55;;;;;;;11.70;7.35;;;;;;;;;;5072242;28;20038;-74
2022/10/16 03:20:20;;;;;;;10.15;8.05;;;;;;;;;;5073503;28;20025;-75
2022/10/16 03:22:45;;;;;;;10.65;8.05;;;;;;;;;;5072050;28;20051;-76
2022/10/16 03:25:11;;;;;;;10.45;8.05;;;;;;;;;;5073412;28;20085;-75
2022/10/16 03:27:36;;;;;;;13.40;7.47;;;;;;;;;;5073294;28;20067;-74
2022/10/16 03:30:02;;;;;;;11.27;8.00;;;;;;;;;;5072020;28;20020;-74
2022/10/16 03:32:28;;;;;;;10.50;8.10;;;;;;;;;;5073095;28;20546;-75
2022/10/16 03:34:54;;;;;;;9.95;8.20;;;;;;;;;;5073245;28;20489;-74
2022/10/16 03:37:19;;;;;;;10.88;8.30;;;;;;;;;;5073188;28;20031;-75
2022/10/16 03:39:45;;;;;;;11.63;8.43;;;;;;;;;;5073118;28;20060;-74
2022/10/16 03:42:10;;;;;;;10.82;7.78;;;;;;;;;;5073410;28;20032;-74
2022/10/16 03:44:35;;;;;;;12.75;8.77;;;;;;;;;;5073378;28;20430;-74
2022/10/16 03:47:00;;;;;;;13.55;8.68;;;;;;;;;;5073170;28;20017;-74
2022/10/16 03:49:26;;;;;;;12.18;8.93;;;;;;;;;;5073419;28;20035;-75
2022/10/16 03:51:51;;;;;;;11.80;9.13;;;;;;;;;;5072924;28;20032;-75
2022/10/16 03:54:16;;;;;;;13.85;8.20;;;;;;;;;;5073179;28;20375;-74
2022/10/16 03:56:41;;;;;;;12.73;8.35;;;;;;;;;;5073002;28;20024;-75
2022/10/16 03:59:07;;;;;;;11.25;8.15;;;;;;;;;;5071715;28;20031;-75
2022/10/16 04:01:32;;;;;;;10.25;8.50;;;;;;;;;;5072859;28;20020;-75
2022/10/16 04:03:57;;;;;;;11.90;8.93;;;;;;;;;;5071796;28;20385;-75
2022/10/16 04:06:23;;;;;;;10.05;8.30;;;;;;;;;;5071707;28;20017;-75
2022/10/16 04:08:48;;;;;;;10.57;8.15;;;;;;;;;;5076103;28;20027;-75
2022/10/16 04:11:13;;;;;;;10.93;9.02;;;;;;;;;;5075633;28;20024;-75
2022/10/16 04:13:38;;;;;;;10.38;8.48;;;;;;;;;;5077089;28;20034;-75
2022/10/16 04:16:04;;;;;;;11.70;9.23;;;;;;;;;;5075669;28;20024;-76
2022/10/16 04:18:29;;;;;;;10.82;8.80;;;;;;;;;;5076901;28;20047;-75
2022/10/16 04:20:54;;;;;;;9.65;8.27;;;;;;;;;;5076845;28;20017;-75
2022/10/16 04:23:20;;;;;;;12.27;8.57;;;;;;;;;;5076890;28;20036;-75
2022/10/16 04:25:46;;;;;;;10.00;8.65;;;;;;;;;;5076892;28;20135;-74
2022/10/16 04:28:11;;;;;;;10.30;8.45;;;;;;;;;;5076743;28;20078;-75
2022/10/16 04:30:38;;;;;;;10.43;8.77;;;;;;;;;;5076862;28;20533;-75
2022/10/16 04:33:04;;;;;;;12.23;8.50;;;;;;;;;;5076452;28;20027;-74
2022/10/16 04:35:29;;;;;;;14.05;8.75;;;;;;;;;;5076490;28;20032;-76
2022/10/16 04:37:57;;;;;;;11.95;8.95;;;;;;;;;;5075329;28;20031;-73
2022/10/16 04:40:22;;;;;;;12.85;8.85;;;;;;;;;;5076638;28;20025;-76
2022/10/16 04:42:48;;;;;;;11.43;9.13;;;;;;;;;;5076350;28;20103;-76
2022/10/16 04:45:13;;;;;;;13.20;9.35;;;;;;;;;;5076414;28;20476;-75
2022/10/16 04:47:38;;;;;;;13.05;9.63;;;;;;;;;;5075075;28;20021;-75
2022/10/16 04:50:04;;;;;;;14.82;10.20;;;;;;;;;;5076242;28;20024;-75
2022/10/16 04:52:31;;;;;;;16.73;9.98;;;;;;;;;;5075813;28;20044;-75
2022/10/16 04:55:00;;;;;;;12.45;9.48;;;;;;;;;;5076203;28;20025;-75
2022/10/16 04:57:26;;;;;;;13.57;10.10;;;;;;;;;;5076190;28;20028;-75
2022/10/16 04:59:52;;;;;;;11.07;9.15;;;;;;;;;;5076081;28;20434;-75
2022/10/16 05:02:17;;;;;;;14.45;8.70;;;;;;;;;;5076027;28;20119;-75
2022/10/16 05:04:42;;;;;;;11.82;8.68;;;;;;;;;;5074740;28;20108;-75
2022/10/16 05:07:07;;;;;;;12.57;9.18;;;;;;;;;;5075877;28;20025;-74
2022/10/16 05:09:33;;;;;;;11.23;8.52;;;;;;;;;;5076135;28;20020;-75
2022/10/16 05:11:58;;;;;;;13.32;7.63;;;;;;;;;;5074671;28;20036;-75
2022/10/16 05:14:26;;;;;;;11.52;8.65;;;;;;;;;;5074526;28;20401;-75
2022/10/16 05:16:51;;;;;;;10.70;7.88;;;;;;;;;;5076053;28;20024;-75
2022/10/16 05:19:17;;;;;;;9.55;7.72;;;;;;;;;;5074965;28;20508;-75
2022/10/16 05:21:42;;;;;;;10.20;7.80;;;;;;;;;;5074358;28;20103;-75
2022/10/16 05:24:09;;;;;;;8.50;7.45;;;;;;;;;;5075648;28;20466;-75
2022/10/16 05:26:34;;;;;;;12.10;8.00;;;;;;;;;;5075528;28;20023;-75
2022/10/16 05:28:59;;;;;;;11.60;8.10;;;;;;;;;;5075660;28;20021;-75
2022/10/16 05:31:24;;;;;;;10.40;7.93;;;;;;;;;;5074486;28;20470;-74
2022/10/16 05:33:50;;;;;;;9.32;8.13;;;;;;;;;;5075830;28;20032;-75
2022/10/16 05:36:15;;;;;;;8.98;7.70;;;;;;;;;;5075776;28;20016;-75
2022/10/16 05:38:40;;;;;;;9.48;7.28;;;;;;;;;;5075631;28;20447;-75
2022/10/16 05:41:06;;;;;;;11.80;7.93;;;;;;;;;;5075469;28;20017;-74
2022/10/16 05:43:32;;;;;;;10.15;7.75;;;;;;;;;;5075603;28;20024;-75
2022/10/16 05:45:59;;;;;;;9.10;7.28;;;;;;;;;;5075285;28;20032;-76
2022/10/16 05:48:24;;;;;;;9.32;8.13;;;;;;;;;;5075247;28;20028;-76
2022/10/16 05:51:02;;;;;;;12.48;7.80;;;;;;;;;;5075470;28;20040;-75
2022/10/16 05:53:29;;;;;;;9.52;8.20;;;;;;;;;;5075126;28;20028;-75
2022/10/16 05:55:55;;;;;;;8.85;7.93;;;;;;;;;;5074219;28;20028;-75
2022/10/16 05:58:21;;;;;;;10.93;8.15;;;;;;;;;;5073778;28;20031;-74
2022/10/16 06:01:17;;;;;;;10.73;8.25;;;;;;;;;;5075112;28;20024;-75
2022/10/16 06:03:42;;;;;;;12.73;8.98;;;;;;;;;;5065941;28;20055;-75
2022/10/16 06:06:13;;;;;;;13.30;11.00;;;;;;;;;;5074774;28;20483;-75
2022/10/16 06:08:40;;;;;;;12.52;9.80;;;;;;;;;;5075231;28;20028;-75
2022/10/16 06:11:11;;;;;;;12.80;10.57;;;;;;;;;;5074738;28;20031;-76
2022/10/16 06:13:37;;;;;;;13.30;10.13;;;;;;;;;;5074819;28;20032;-76
2022/10/16 06:16:03;;;;;;;13.18;10.38;;;;;;;;;;5074957;28;20396;-76
2022/10/16 06:18:29;;;;;;;20.77;9.80;;;;;;;;;;5074984;28;20142;-75
2022/10/16 06:20:56;;;;;;;13.98;10.48;;;;;;;;;;5074834;28;20020;-76
2022/10/16 06:23:22;;;;;;;13.43;11.00;;;;;;;;;;5074831;28;20031;-76
2022/10/16 06:25:47;;;;;;;12.68;10.50;;;;;;;;;;5074620;28;20032;-76
2022/10/16 06:28:15;;;;;;;14.43;10.57;;;;;;;;;;5074779;28;20405;-76
2022/10/16 06:30:43;;;;;;;12.50;10.25;;;;;;;;;;5073876;28;20041;-76
2022/10/16 06:33:08;;;;;;;15.13;10.70;;;;;;;;;;5073859;28;20107;-75
2022/10/16 06:35:34;;;;;;;13.77;10.93;;;;;;;;;;5073300;28;20451;-75
2022/10/16 06:37:59;;;;;;;17.50;11.57;;;;;;;;;;5074454;28;20142;-75
2022/10/16 06:40:24;;;;;;;13.95;10.52;;;;;;;;;;5074195;28;20025;-76
2022/10/16 06:42:51;;;;;;;16.27;11.57;;;;;;;;;;5074144;28;20069;-76
2022/10/16 06:45:17;;;;;;;14.07;11.90;;;;;;;;;;5074122;28;20100;-74
2022/10/16 06:47:42;;;;;;;15.10;11.30;;;;;;;;;;5074042;28;20389;-75
2022/10/16 06:50:07;;;;;;;14.95;11.57;;;;;;;;;;5074120;28;20107;-74
2022/10/16 06:52:34;;;;;;;13.75;11.05;;;;;;;;;;5073644;28;20029;-75
2022/10/16 06:54:59;;;;;;;14.88;10.77;;;;;;;;;;5073754;28;20052;-74
2022/10/16 06:57:24;;;;;;;14.05;11.15;;;;;;;;;;5073853;28;20481;-75
2022/10/16 06:59:50;;;;;;;12.07;10.02;;;;;;;;;;5073871;28;20482;-75
2022/10/16 07:02:15;;;;;;;12.48;10.65;;;;;;;;;;5074068;28;20062;-74
2022/10/16 07:04:40;;;;;;;10.60;9.43;;;;;;;;;;5074053;28;20032;-74
2022/10/16 07:07:05;;;;;;;16.52;9.85;;;;;;;;;;5073723;28;20377;-75
2022/10/16 07:09:31;;;;;;;10.60;9.30;;;;;;;;;;5073885;28;20081;-74
2022/10/16 07:11:56;;;;;;;12.57;9.07;;;;;;;;;;5073374;28;20059;-75
2022/10/16 07:14:22;;;;;;;11.20;9.45;;;;;;;;;;5073500;28;20151;-74
2022/10/16 07:16:47;;;;;;;10.50;8.70;;;;;;;;;;5072169;28;20021;-74
2022/10/16 07:19:14;;;;;;;13.13;9.63;;;;;;;;;;5073680;28;20047;-76
2022/10/16 07:21:40;;;;;;;12.35;9.32;;;;;;;;;;5072103;28;20020;-75
2022/10/16 07:24:11;;;;;;;10.77;8.70;;;;;;;;;;5073361;28;20021;-75
2022/10/16 07:26:38;;;;;;;12.80;8.55;;;;;;;;;;5073916;28;20027;-75
2022/10/16 07:29:05;;;;;;;10.57;9.00;;;;;;;;;;5072039;28;20486;-75
2022/10/16 07:31:30;;;;;;;10.57;8.65;;;;;;;;;;5073139;28;20127;-75
2022/10/16 07:33:58;;;;;;;11.68;8.13;;;;;;;;;;5073271;28;20497;-75
2022/10/16 07:36:23;;;;;;;9.55;8.40;;;;;;;;;;5073200;28;20478;-75
2022/10/16 07:38:48;;;;;;;8.65;7.75;;;;;;;;;;5072061;28;20035;-76
2022/10/16 07:41:16;;;;;;;9.93;8.70;;;;;;;;;;5073584;28;20024;-76
2022/10/16 07:43:47;;;;;;;9.75;7.88;;;;;;;;;;5073679;28;20024;-75
2022/10/16 07:46:13;;;;;;;11.13;8.32;;;;;;;;;;5073317;28;20036;-76
2022/10/16 07:48:38;;;;;;;10.38;8.60;;;;;;;;;;5073649;28;20382;-76
2022/10/16 07:51:05;;;;;;;10.27;8.50;;;;;;;;;;5072930;28;20064;-77
2022/10/16 07:53:31;;;;;;;10.50;7.75;;;;;;;;;;5072271;28;20060;-76
2022/10/16 07:56:01;;;;;;;13.05;9.05;;;;;;;;;;5073455;28;20076;-75
2022/10/16 07:58:28;;;;;;;8.40;7.50;;;;;;;;;;5073068;28;20040;-76
2022/10/16 08:00:53;;;;;;;10.55;8.70;;;;;;;;;;5073070;28;20024;-75
2022/10/16 08:03:18;;;;;;;11.07;8.45;;;;;;;;;;5073232;28;20027;-76
2022/10/16 08:05:43;;;;;;;10.35;8.05;;;;;;;;;;5073505;28;20378;-75
2022/10/16 08:08:13;;;;;;;10.88;8.55;;;;;;;;;;5072933;28;20031;-75
2022/10/16 08:10:38;;;;;;;11.82;8.80;;;;;;;;;;5073163;28;20039;-75
2022/10/16 08:13:04;;;;;;;18.83;9.60;;;;;;;;;;5072873;28;20393;-76
2022/10/16 08:15:29;;;;;;;10.48;7.95;;;;;;;;;;5072852;28;20028;-75
2022/10/16 08:18:05;;;;;;;13.13;7.60;;;;;;;;;;5071660;28;20021;-75
2022/10/16 08:20:32;;;;;;;8.30;6.97;;;;;;;;;;5073160;28;20749;-76
2022/10/16 08:22:57;;;;;;;8.65;6.70;;;;;;;;;;5072659;28;20032;-75
2022/10/16 08:25:23;;;;;;;7.55;6.75;;;;;;;;;;5073080;28;20021;-75
2022/10/16 08:27:49;;;;;;;12.57;6.55;;;;;;;;;;5073172;28;20433;-77
2022/10/16 08:30:15;;;;;;;6.80;6.00;;;;;;;;;;5072985;28;20025;-76
2022/10/16 08:32:41;;;;;;;8.68;6.50;;;;;;;;;;5073615;28;20035;-76
2022/10/16 08:35:09;;;;;;;8.20;5.68;;;;;;;;;;5073418;28;20025;-75
2022/10/16 08:37:34;;;;;;;7.35;5.68;;;;;;;;;;5072723;28;20029;-76
2022/10/16 08:40:00;;;;;;;7.47;4.97;;;;;;;;;;5072896;28;20040;-75
2022/10/16 08:42:39;;;;;;;8.20;5.32;;;;;;;;;;5072637;28;20021;-76
2022/10/16 08:45:44;;;;;;;7.65;5.28;;;;;;;;;;5072938;28;20508;-75
2022/10/16 08:48:22;;;;;;;;;;;;;;;;;;5073635;28;20032;-76
2022/10/16 08:50:50;;;;;;;6.63;5.65;;;;;;;;;;5072672;28;19913;-75
2022/10/16 08:53:23;;;;;;;8.05;5.90;;;;;;;;;;5072519;28;20032;-75
2022/10/16 08:55:51;;;;;;;10.27;6.60;;;;;;;;;;5075594;28;20025;-74
2022/10/16 08:58:19;;;;;;;7.35;6.55;;;;;;;;;;5076495;28;20028;-76
2022/10/16 09:00:52;;;;;;;7.07;6.20;;;;;;;;;;5076257;28;20035;-75
2022/10/16 09:03:58;;;;;;;6.88;6.18;;;;;;;;;;5076214;28;20078;-75
2022/10/16 09:06:32;;;;;;;8.68;6.53;;;;;;;;;;5070804;28;20041;-76
2022/10/16 09:09:24;;;;;;;9.00;7.20;;;;;;;;;;5076606;28;20028;-75
2022/10/16 09:12:01;;;;;;;7.72;6.90;;;;;;;;;;5076184;28;20478;-75
2022/10/16 09:15:05;;;;;;;8.82;6.68;;;;;;;;;;5074797;28;20036;-75
2022/10/16 09:17:46;;;;;;;10.52;7.43;;;;;;;;;;5074701;28;20539;-75
2022/10/16 09:20:50;;;;;;;10.35;7.47;;;;;;;;;;5074735;28;20062;-77
2022/10/16 09:23:25;;;;;;;12.27;7.93;;;;;;;;;;5074160;28;20040;-75
2022/10/16 09:25:50;;;;;;;9.25;7.82;;;;;;;;;;5076068;28;20687;-76
2022/10/16 09:28:18;;;;;;;10.32;8.00;;;;;;;;;;5074487;28;20024;-76
2022/10/16 09:30:44;;;;;;;9.13;7.70;;;;;;;;;;5074546;28;20025;-76
2022/10/16 09:33:11;;;;;;;8.80;7.90;;;;;;;;;;5075495;28;20029;-75
2022/10/16 09:35:50;;;;;;;8.43;7.38;;;;;;;;;;5076243;28;20435;-76
2022/10/16 09:38:38;;;;;;;8.82;7.47;;;;;;;;;;5076193;28;20024;-75
2022/10/16 09:41:17;;;;;;;9.15;8.15;;;;;;;;;;5075629;28;20389;-75
2022/10/16 09:43:48;;;;;;;9.73;7.88;;;;;;;;;;5075444;28;20028;-75
2022/10/16 09:46:29;;;;;;;9.23;8.07;;;;;;;;;;5075439;28;20058;-75
2022/10/16 09:49:19;;;;;;;9.13;7.80;;;;;;;;;;5075419;28;20035;-75
2022/10/16 09:51:45;;;;;;;8.77;7.57;;;;;;;;;;5069397;28;20048;-77
2022/10/16 09:54:17;;;;;;;9.75;8.73;;;;;;;;;;5074234;28;20443;-76
2022/10/16 09:56:45;;;;;;;8.85;7.93;;;;;;;;;;5075579;28;20024;-75
2022/10/16 09:59:16;;;;;;;9.30;8.30;;;;;;;;;;5073940;28;20035;-77
2022/10/16 10:01:50;;;;;;;12.38;8.07;;;;;;;;;;5075000;28;20028;-75
2022/10/16 10:04:17;;;;;;;9.10;7.80;;;;;;;;;;5075194;28;20435;-76
2022/10/16 10:06:46;;;;;;;7.78;6.97;;;;;;;;;;5075092;28;20074;-75
2022/10/16 10:09:19;;;;;;;13.45;8.27;;;;;;;;;;5075583;28;20020;-75
2022/10/16 10:11:55;;;;;;;10.35;7.57;;;;;;;;;;5074312;28;20029;-76
2022/10/16 10:14:28;;;;;;;10.95;8.27;;;;;;;;;;5074864;28;20024;-76
2022/10/16 10:17:06;;;;;;;9.65;7.63;;;;;;;;;;5075313;28;20017;-75
2022/10/16 10:19:42;;;;;;;8.85;6.78;;;;;;;;;;5074566;28;20421;-75
2022/10/16 10:22:17;;;;;;;6.10;4.90;;;;;;;;;;5074627;28;20432;-75
2022/10/16 10:24:44;;;;;;;6.05;4.63;;;;;;;;;;5074426;28;20025;-75
2022/10/16 10:27:16;;;;;;;6.93;4.78;;;;;;;;;;5074460;28;20033;-76
2022/10/16 10:29:58;;;;;;;4.65;4.15;;;;;;;;;;5074761;28;20025;-74
2022/10/16 10:32:42;;;;;;;4.00;3.50;;;;;;;;;;5074509;28;20068;-76
2022/10/16 10:35:16;;;;;;;3.90;3.30;;;;;;;;;;5074604;28;20028;-76
2022/10/16 10:38:18;;;;;;;9.77;3.65;;;;;;;;;;5074472;28;20071;-76
2022/10/16 10:41:05;;;;;;;4.38;3.33;;;;;;;;;;5066174;28;20397;-74
2022/10/16 10:43:38;;;;;;;3.33;2.83;;;;;;;;;;5074502;28;20474;-75
2022/10/16 10:46:08;;;;;;;3.50;3.20;;;;;;;;;;5074131;28;20115;-76
2022/10/16 10:48:43;;;;;;;7.53;4.30;;;;;;;;;;5074210;28;20032;-75
2022/10/16 10:51:15;;;;;;;4.53;3.90;;;;;;;;;;5072457;28;20119;-76
2022/10/16 10:54:00;;;;;;;5.53;4.22;;;;;;;;;;5074005;28;20552;-76
2022/10/16 10:56:42;;;;;;;5.93;3.80;;;;;;;;;;5072706;28;20031;-75
2022/10/16 10:59:25;;;;;;;4.43;3.88;;;;;;;;;;5073800;28;20024;-75
2022/10/16 11:02:12;;;;;;;4.35;3.00;;;;;;;;;;5073826;28;20028;-77
2022/10/16 11:05:06;;;;;;;3.83;3.00;;;;;;;;;;5074050;28;20508;-76
2022/10/16 11:07:39;;;;;;;3.78;3.13;;;;;;;;;;5067603;28;20036;-75
2022/10/16 11:10:11;;;;;;;2.15;1.83;;;;;;;;;;5073901;28;20089;-76
2022/10/16 11:12:44;;;;;;;1.88;1.50;;;;;;;;;;5073595;28;20028;-76
2022/10/16 11:15:25;;;;;;;2.72;1.35;;;;;;;;;;5073768;28;20524;-76
2022/10/16 11:17:53;;;;;;;1.00;0.90;;;;;;;;;;5073034;28;20444;-76
2022/10/16 11:20:26;;;;;;;0.60;0.60;;;;;;;;;;5073551;28;20035;-76
2022/10/16 11:22:56;;;;;;;1.83;0.90;;;;;;;;;;5073391;28;20028;-76
2022/10/16 11:25:27;;;;;;;2.58;0.70;;;;;;;;;;5073462;28;20016;-77
2022/10/16 11:28:10;;;;;;;2.85;0.70;;;;;;;;;;5073766;28;20020;-75
2022/10/16 11:30:46;;;;;;;0.77;0.68;;;;;;;;;;5073378;28;20046;-76
2022/10/16 11:33:17;;;;;;;1.38;0.50;;;;;;;;;;5073666;28;20032;-75
2022/10/16 11:36:23;;;;;;;1.77;0.70;;;;;;;;;;5073294;28;20489;-75
2022/10/16 11:39:02;;;;;;;2.50;0.57;;;;;;;;;;5073331;28;20024;-76
2022/10/16 11:41:35;;;;;;;0.80;0.60;;;;;;;;;;5073432;28;20031;-75
2022/10/16 11:44:16;;;;;;;0.80;0.40;;;;;;;;;;5073198;28;20407;-74
2022/10/16 11:46:48;;;;;;;1.75;0.73;;;;;;;;;;5073187;28;20115;-76
2022/10/16 11:49:23;;;;;;;0.30;0.30;;;;;;;;;;5073555;28;20071;-77
2022/10/16 11:52:13;;;;;;;2.53;0.40;;;;;;;;;;5072957;28;20024;-75
2022/10/16 11:54:44;;;;;;;2.88;0.60;;;;;;;;;;5073627;28;20016;-75
2022/10/16 11:57:17;;;;;;;0.98;0.60;;;;;;;;;;5073326;28;20025;-75
2022/10/16 11:59:48;;;;;;;1.20;0.65;;;;;;;;;;5073286;28;20031;-74
2022/10/16 12:02:25;;;;;;;0.60;0.60;;;;;;;;;;5071786;28;20020;-76
2022/10/16 12:05:03;;;;;;;2.28;0.60;;;;;;;;;;5073207;28;20032;-74
2022/10/16 12:07:38;;;;;;;0.50;0.50;;;;;;;;;;5073253;28;20111;-74
2022/10/16 12:10:26;;;;;;;1.15;0.50;;;;;;;;;;5073181;28;20112;-75
2022/10/16 12:12:51;;;;;;;0.60;0.52;;;;;;;;;;5072590;28;20020;-76
2022/10/16 12:15:32;;;;;;;2.45;0.85;;;;;;;;;;5071381;28;20051;-75
2022/10/16 12:17:58;;;;;;;0.50;0.50;;;;;;;;;;5072791;28;20028;-75
2022/10/16 12:20:45;;;;;;;0.43;0.43;;;;;;;;;;5073017;28;20031;-75
2022/10/16 12:23:21;;;;;;;2.55;0.60;;;;;;;;;;5073033;28;20074;-75
2022/10/16 12:25:55;;;;;;;0.55;0.52;;;;;;;;;;5072761;28;20021;-76
2022/10/16 12:28:22;;;;;;;0.60;0.50;;;;;;;;;;5071887;28;20048;-75
2022/10/16 12:31:05;;;;;;;1.50;0.60;;;;;;;;;;5076712;28;20074;-76
2022/10/16 12:33:33;;;;;;;0.53;0.53;;;;;;;;;;5076523;28;20032;-75
2022/10/16 12:36:01;;;;;;;0.75;0.40;;;;;;;;;;5076906;28;20253;-75
2022/10/16 12:38:48;;;;;;;1.70;0.60;;;;;;;;;;5076773;28;20024;-74
2022/10/16 12:41:39;;;;;;;1.60;0.50;;;;;;;;;;5075094;28;20479;-75
2022/10/16 12:44:20;;;;;;;0.40;0.40;;;;;;;;;;5076732;28;20021;-75
2022/10/16 12:46:46;;;;;;;0.40;0.40;;;;;;;;;;5076933;28;20408;-75
2022/10/16 12:49:15;;;;;;;4.32;0.45;;;;;;;;;;5076343;28;20170;-76
2022/10/16 12:51:42;;;;;;;0.60;0.40;;;;;;;;;;5076043;28;20043;-74
2022/10/16 12:54:37;;;;;;;0.75;0.55;;;;;;;;;;5076123;28;20024;-75
2022/10/16 12:57:27;;;;;;;1.02;0.60;;;;;;;;;;5076214;28;20016;-76
2022/10/16 13:00:20;;;;;;;0.73;0.50;;;;;;;;;;5076242;28;20025;-76
2022/10/16 13:03:18;;;;;;;0.50;0.50;;;;;;;;;;5076590;28;20043;-75
2022/10/16 13:05:52;;;;;;;1.70;1.00;;;;;;;;;;5076413;28;20029;-75
2022/10/16 13:08:41;;;;;;;0.85;0.65;;;;;;;;;;5076140;28;20021;-75
2022/10/16 13:11:29;;;;;;;1.48;0.77;;;;;;;;;;5074557;28;20028;-75
2022/10/16 13:14:16;;;;;;;0.70;0.55;;;;;;;;;;5076509;28;20157;-75
2022/10/16 13:17:08;;;;;;;2.50;0.50;;;;;;;;;;5076174;28;20028;-75
2022/10/16 13:20:12;;;;;;;0.57;0.50;;;;;;;;;;5076270;28;20029;-75
2022/10/16 13:23:12;;;;;;;2.85;0.70;;;;;;;;;;5075931;28;20020;-74
2022/10/16 13:25:49;;;;;;;0.60;0.52;;;;;;;;;;5076050;28;20367;-75
2022/10/16 13:28:17;;;;;;;0.60;0.60;;;;;;;;;;5075918;28;20024;-75
2022/10/16 13:30:50;;;;;;;1.20;0.80;;;;;;;;;;5075548;28;20024;-75
2022/10/16 13:33:20;;;;;;;1.40;1.00;;;;;;;;;;5075643;28;20036;-75
2022/10/16 13:35:51;;;;;;;2.00;0.52;;;;;;;;;;5075525;28;20103;-75
2022/10/16 13:38:19;;;;;;;0.85;0.60;;;;;;;;;;5075697;28;20028;-75
2022/10/16 13:40:57;;;;;;;0.70;0.47;;;;;;;;;;5074801;28;20031;-75
2022/10/16 13:43:27;;;;;;;0.70;0.60;;;;;;;;;;5075299;28;20063;-74
2022/10/16 13:46:01;;;;;;;1.00;0.80;;;;;;;;;;5075222;28;20025;-74
2022/10/16 13:48:27;;;;;;;0.75;0.68;;;;;;;;;;5075613;28;20032;-75
2022/10/16 13:51:11;;;;;;;0.68;0.63;;;;;;;;;;5075291;28;20041;-75
2022/10/16 13:53:36;;;;;;;;;;;;;;;;;;5075515;28;20103;-74
2022/10/16 13:56:09;;;;;;;9.00;1.83;;;;;;;;;;5075601;28;19943;-76
2022/10/16 13:58:35;;;;;;;4.47;1.23;;;;;;;;;;5075238;28;20252;-76
2022/10/16 14:01:07;;;;;;;3.50;1.42;;;;;;;;;;5073718;28;20107;-75
2022/10/16 14:03:35;;;;;;;2.50;0.80;;;;;;;;;;5075275;28;20012;-76
2022/10/16 14:06:03;;;;;;;2.15;0.93;;;;;;;;;;5075244;28;20024;-75
2022/10/16 14:08:29;;;;;;;2.17;1.00;;;;;;;;;;5073503;28;20056;-74
2022/10/16 14:10:58;;;;;;;2.08;1.00;;;;;;;;;;5075401;28;20078;-75
2022/10/16 14:13:35;;;;;;;2.33;1.10;;;;;;;;;;5074812;28;20023;-76
2022/10/16 14:16:07;;;;;;;1.95;1.02;;;;;;;;;;5078223;28;20079;-75
2022/10/16 14:18:33;;;;;;;2.30;1.30;;;;;;;;;;5089522;28;20490;-74
2022/10/16 14:21:07;;;;;;;1.30;0.90;;;;;;;;;;5090146;28;20038;-75
2022/10/16 14:23:37;;;;;;;3.80;1.90;;;;;;;;;;5089205;28;20024;-75
2022/10/16 14:26:09;;;;;;;3.53;1.70;;;;;;;;;;5089377;28;20505;-74
2022/10/16 14:28:42;;;;;;;2.83;1.30;;;;;;;;;;5089598;28;20107;-74
2022/10/16 14:31:19;;;;;;;4.97;1.55;;;;;;;;;;5089619;28;20524;-75
2022/10/16 14:33:45;;;;;;;4.63;1.40;;;;;;;;;;5088822;28;20038;-75
2022/10/16 14:36:10;;;;;;;3.55;1.38;;;;;;;;;;5088085;28;20048;-75
2022/10/16 14:38:37;;;;;;;2.38;1.40;;;;;;;;;;5088682;28;20020;-74
2022/10/16 14:41:03;;;;;;;1.83;1.38;;;;;;;;;;5085826;28;20025;-75
2022/10/16 14:43:35;;;;;;;4.18;1.30;;;;;;;;;;5083456;28;20073;-74
2022/10/16 14:46:03;;;;;;;2.60;1.40;;;;;;;;;;5080065;28;20048;-74
2022/10/16 14:48:29;;;;;;;3.22;1.60;;;;;;;;;;5082226;28;20028;-74
2022/10/16 14:50:55;;;;;;;2.65;1.23;;;;;;;;;;5083116;28;20040;-74
2022/10/16 14:53:20;;;;;;;2.47;1.30;;;;;;;;;;5082127;28;20028;-73
2022/10/16 14:55:46;;;;;;;2.30;0.98;;;;;;;;;;5082963;28;20034;-73
2022/10/16 14:58:17;;;;;;;2.95;1.20;;;;;;;;;;5082934;28;20085;-74
2022/10/16 15:00:42;;;;;;;1.90;1.20;;;;;;;;;;5077996;28;20024;-74